createdAt,value
2022-08-17T00:01:00.640Z,63.39
2022-08-17T00:02:23.104Z,63.35
2022-08-17T00:03:29.572Z,63.02
2022-08-17T00:04:33.417Z,62.97
2022-08-17T00:05:41.594Z,62.84
2022-08-17T00:06:45.894Z,62.74
2022-08-17T00:07:51.959Z,62.85
2022-08-17T00:08:58.673Z,63.01
2022-08-17T00:10:02.205Z,63.30
2022-08-17T00:11:08.885Z,63.32
2022-08-17T00:12:41.997Z,63.40
2022-08-17T00:13:41.767Z,63.49
2022-08-17T00:14:46.401Z,63.49
2022-08-17T00:15:50.177Z,63.56
2022-08-17T00:16:57.069Z,63.24
2022-08-17T00:18:02.795Z,62.98
2022-08-17T00:19:09.516Z,63.06
2022-08-17T00:20:13.661Z,62.94
2022-08-17T00:21:25.200Z,62.80
2022-08-17T00:22:35.027Z,62.72
2022-08-17T00:23:44.322Z,62.64
2022-08-17T00:24:53.101Z,62.56
2022-08-17T00:25:56.222Z,62.59
2022-08-17T00:26:59.616Z,62.75
2022-08-17T00:28:03.073Z,62.84
2022-08-17T00:29:07.809Z,63.05
2022-08-17T00:30:15.301Z,63.08
2022-08-17T00:31:18.907Z,63.10
2022-08-17T00:33:10.957Z,63.08
2022-08-17T00:33:45.749Z,63.25
2022-08-17T00:34:48.937Z,63.38
2022-08-17T00:35:55.733Z,63.61
2022-08-17T00:36:58.881Z,63.74
2022-08-17T00:38:02.075Z,63.80
2022-08-17T00:39:05.764Z,63.88
2022-08-17T00:40:12.734Z,63.95
2022-08-17T00:41:19.787Z,64.19
2022-08-17T00:42:26.416Z,64.18
2022-08-17T00:43:41.136Z,64.27
2022-08-17T00:44:46.594Z,64.32
2022-08-17T00:45:49.869Z,64.34
2022-08-17T00:46:57.545Z,64.27
2022-08-17T00:48:01.013Z,64.17
2022-08-17T00:49:06.506Z,64.07
2022-08-17T00:50:12.607Z,64.03
2022-08-17T00:51:27.697Z,64.25
2022-08-17T00:52:36.323Z,64.55
2022-08-17T00:53:43.927Z,64.58
2022-08-17T00:54:52.553Z,64.69
2022-08-17T00:55:56.049Z,64.86
2022-08-17T00:57:04.987Z,64.93
2022-08-17T00:58:08.609Z,64.97
2022-08-17T00:59:15.865Z,64.92
2022-08-17T01:00:27.366Z,64.86
2022-08-17T01:01:32.241Z,64.91
2022-08-17T01:02:43.005Z,64.88
2022-08-17T01:03:46.458Z,64.85
2022-08-17T01:04:53.112Z,64.88
2022-08-17T01:06:00.657Z,65.02
2022-08-17T01:07:06.440Z,65.07
2022-08-17T01:08:16.165Z,65.33
2022-08-17T01:09:20.062Z,65.18
2022-08-17T01:10:58.557Z,65.35
2022-08-17T01:11:55.016Z,65.24
2022-08-17T01:13:00.325Z,65.39
2022-08-17T01:14:04.291Z,65.10
2022-08-17T01:15:08.045Z,65.11
2022-08-17T01:16:16.097Z,65.03
2022-08-17T01:17:19.522Z,65.09
2022-08-17T01:18:23.190Z,65.21
2022-08-17T01:19:30.641Z,65.15
2022-08-17T01:20:47.531Z,65.09
2022-08-17T01:21:51.849Z,65.05
2022-08-17T01:22:55.221Z,65.18
2022-08-17T01:23:59.727Z,65.09
2022-08-17T01:25:08.283Z,65.23
2022-08-17T01:26:11.592Z,65.13
2022-08-17T01:27:18.321Z,65.20
2022-08-17T01:28:52.372Z,65.22
2022-08-17T01:29:58.145Z,65.25
2022-08-17T01:31:06.565Z,65.13
2022-08-17T01:32:10.435Z,65.35
2022-08-17T01:33:13.905Z,65.31
2022-08-17T01:34:25.111Z,65.30
2022-08-17T01:35:57.617Z,65.24
2022-08-17T01:37:23.798Z,65.39
2022-08-17T01:39:10.167Z,65.22
2022-08-17T01:40:43.361Z,65.39
2022-08-17T01:42:03.740Z,65.40
2022-08-17T01:43:50.928Z,65.27
2022-08-17T01:45:15.310Z,65.37
2022-08-17T01:46:28.883Z,65.59
2022-08-17T01:47:32.660Z,65.60
2022-08-17T01:48:39.471Z,65.53
2022-08-17T01:49:42.600Z,65.37
2022-08-17T01:50:48.101Z,65.44
2022-08-17T01:51:51.969Z,65.38
2022-08-17T01:53:05.578Z,65.40
2022-08-17T01:54:15.280Z,65.46
2022-08-17T01:55:27.320Z,65.50
2022-08-17T01:56:33.015Z,65.44
2022-08-17T01:57:36.706Z,65.42
2022-08-17T01:58:44.191Z,65.47
2022-08-17T01:59:50.130Z,65.40
2022-08-17T02:01:00.939Z,65.44
2022-08-17T02:02:07.543Z,65.41
2022-08-17T02:03:10.981Z,65.43
2022-08-17T02:04:15.039Z,65.45
2022-08-17T02:05:18.636Z,65.50
2022-08-17T02:06:27.569Z,65.58
2022-08-17T02:07:31.334Z,65.64
2022-08-17T02:08:38.998Z,65.69
2022-08-17T02:09:59.480Z,65.62
2022-08-17T02:11:11.159Z,65.72
2022-08-17T02:12:37.900Z,65.65
2022-08-17T02:13:38.313Z,65.64
2022-08-17T02:14:41.777Z,65.66
2022-08-17T02:15:45.391Z,65.68
2022-08-17T02:16:48.589Z,65.72
2022-08-17T02:17:54.738Z,65.72
2022-08-17T02:18:58.025Z,65.69
2022-08-17T02:20:01.911Z,65.75
2022-08-17T02:21:06.029Z,65.79
2022-08-17T02:22:09.471Z,65.88
2022-08-17T02:23:15.887Z,65.91
2022-08-17T02:24:59.440Z,65.91
2022-08-17T02:25:59.255Z,65.79
2022-08-17T02:27:02.439Z,65.92
2022-08-17T02:28:05.827Z,65.90
2022-08-17T02:29:09.158Z,65.84
2022-08-17T02:30:59.851Z,65.85
2022-08-17T02:31:38.106Z,65.61
2022-08-17T02:32:41.535Z,65.59
2022-08-17T02:33:44.630Z,65.67
2022-08-17T02:35:01.349Z,65.59
2022-08-17T02:36:06.782Z,65.41
2022-08-17T02:37:10.058Z,65.33
2022-08-17T02:38:13.517Z,65.36
2022-08-17T02:39:16.718Z,65.22
2022-08-17T02:40:36.232Z,65.20
2022-08-17T02:41:41.098Z,65.18
2022-08-17T02:42:45.713Z,65.29
2022-08-17T02:43:49.116Z,65.23
2022-08-17T02:44:52.347Z,65.25
2022-08-17T02:45:55.783Z,65.36
2022-08-17T02:46:59.069Z,65.45
2022-08-17T02:48:03.316Z,65.51
2022-08-17T02:49:06.572Z,65.49
2022-08-17T02:50:12.003Z,65.72
2022-08-17T02:51:15.551Z,65.68
2022-08-17T02:52:43.055Z,65.83
2022-08-17T02:53:45.015Z,65.74
2022-08-17T02:54:48.515Z,65.86
2022-08-17T02:55:52.013Z,65.74
2022-08-17T02:56:55.819Z,65.60
2022-08-17T02:58:04.036Z,65.54
2022-08-17T02:59:07.366Z,65.71
2022-08-17T03:00:14.586Z,65.77
2022-08-17T03:01:22.389Z,65.74
2022-08-17T03:02:25.842Z,65.79
2022-08-17T03:03:29.041Z,65.82
2022-08-17T03:04:34.887Z,65.73
2022-08-17T03:05:39.908Z,65.64
2022-08-17T03:06:43.098Z,65.64
2022-08-17T03:07:46.261Z,65.46
2022-08-17T03:08:49.632Z,65.32
2022-08-17T03:09:54.116Z,65.28
2022-08-17T03:10:57.583Z,65.20
2022-08-17T03:12:09.783Z,65.14
2022-08-17T03:13:16.340Z,65.21
2022-08-17T03:14:28.533Z,65.49
2022-08-17T03:15:34.173Z,65.54
2022-08-17T03:16:37.420Z,65.39
2022-08-17T03:17:42.835Z,65.41
2022-08-17T03:18:46.458Z,65.55
2022-08-17T03:19:49.979Z,65.62
2022-08-17T03:20:59.756Z,65.69
2022-08-17T03:22:35.327Z,65.76
2022-08-17T03:23:29.634Z,65.85
2022-08-17T03:24:33.820Z,66.03
2022-08-17T03:25:43.363Z,65.95
2022-08-17T03:26:47.467Z,65.97
2022-08-17T03:27:52.159Z,65.93
2022-08-17T03:28:55.441Z,65.86
2022-08-17T03:29:58.935Z,65.99
2022-08-17T03:31:03.209Z,65.97
2022-08-17T03:32:13.975Z,66.10
2022-08-17T03:33:17.663Z,66.15
2022-08-17T03:34:20.820Z,66.28
2022-08-17T03:35:26.856Z,66.08
2022-08-17T03:36:30.052Z,66.22
2022-08-17T03:37:39.448Z,66.31
2022-08-17T03:38:42.575Z,66.37
2022-08-17T03:39:48.326Z,66.57
2022-08-17T03:40:57.135Z,66.55
2022-08-17T03:42:31.929Z,66.38
2022-08-17T03:43:36.019Z,66.21
2022-08-17T03:44:39.736Z,66.33
2022-08-17T03:46:02.166Z,66.19
2022-08-17T03:47:24.437Z,66.18
2022-08-17T03:48:46.203Z,66.23
2022-08-17T03:50:08.262Z,66.37
2022-08-17T03:51:41.790Z,66.45
2022-08-17T03:53:09.497Z,66.37
2022-08-17T03:54:31.165Z,66.39
2022-08-17T03:55:53.178Z,66.25
2022-08-17T03:57:09.046Z,66.38
2022-08-17T03:58:12.247Z,66.30
2022-08-17T03:59:22.248Z,66.41
2022-08-17T04:00:27.883Z,66.50
2022-08-17T04:01:31.273Z,66.56
2022-08-17T04:02:35.007Z,66.76
2022-08-17T04:03:38.132Z,66.77
2022-08-17T04:04:41.314Z,66.88
2022-08-17T04:05:44.915Z,66.99
2022-08-17T04:06:48.571Z,67.07
2022-08-17T04:07:52.011Z,67.07
2022-08-17T04:08:59.199Z,67.04
2022-08-17T04:10:05.103Z,67.03
2022-08-17T04:11:08.438Z,67.08
2022-08-17T04:12:11.836Z,66.88
2022-08-17T04:13:15.128Z,66.91
2022-08-17T04:14:27.471Z,66.99
2022-08-17T04:15:34.172Z,67.01
2022-08-17T04:16:37.583Z,67.10
2022-08-17T04:17:41.646Z,67.12
2022-08-17T04:18:45.058Z,67.16
2022-08-17T04:19:48.251Z,67.22
2022-08-17T04:20:51.576Z,67.17
2022-08-17T04:21:54.877Z,67.21
2022-08-17T04:23:32.955Z,67.20
2022-08-17T04:24:38.933Z,67.13
2022-08-17T04:25:44.997Z,67.18
2022-08-17T04:26:52.547Z,67.10
2022-08-17T04:28:02.155Z,67.09
2022-08-17T04:29:05.609Z,67.15
2022-08-17T04:30:09.786Z,66.91
2022-08-17T04:31:14.345Z,66.62
2022-08-17T04:33:00.608Z,66.49
2022-08-17T04:33:48.496Z,66.29
2022-08-17T04:34:51.638Z,66.47
2022-08-17T04:35:58.625Z,66.34
2022-08-17T04:37:04.006Z,66.43
2022-08-17T04:38:10.428Z,66.60
2022-08-17T04:39:13.614Z,66.74
2022-08-17T04:40:37.221Z,66.80
2022-08-17T04:42:01.090Z,66.83
2022-08-17T04:43:19.581Z,66.95
2022-08-17T04:44:28.365Z,67.00
2022-08-17T04:45:55.579Z,67.00
2022-08-17T04:47:00.518Z,67.09
2022-08-17T04:48:07.388Z,67.15
2022-08-17T04:49:12.011Z,67.17
2022-08-17T04:50:15.415Z,67.13
2022-08-17T04:51:54.510Z,67.31
2022-08-17T04:52:59.818Z,67.25
2022-08-17T04:54:07.288Z,67.37
2022-08-17T04:55:11.910Z,67.45
2022-08-17T04:56:19.027Z,67.43
2022-08-17T04:57:22.347Z,67.31
2022-08-17T04:58:25.545Z,67.37
2022-08-17T04:59:28.656Z,67.47
2022-08-17T05:00:36.179Z,67.40
2022-08-17T05:01:47.514Z,67.34
2022-08-17T05:02:55.934Z,67.62
2022-08-17T05:04:21.466Z,67.52
2022-08-17T05:05:33.957Z,67.55
2022-08-17T05:06:37.613Z,67.53
2022-08-17T05:07:40.896Z,67.62
2022-08-17T05:08:44.224Z,67.48
2022-08-17T05:09:47.497Z,67.63
2022-08-17T05:10:51.039Z,67.62
2022-08-17T05:11:55.292Z,67.67
2022-08-17T05:13:08.630Z,67.78
2022-08-17T05:14:13.703Z,67.86
2022-08-17T05:15:16.940Z,68.01
2022-08-17T05:16:24.546Z,68.12
2022-08-17T05:17:27.836Z,68.22
2022-08-17T05:18:32.293Z,68.28
2022-08-17T05:19:35.756Z,68.33
2022-08-17T05:20:41.714Z,68.43
2022-08-17T05:21:45.105Z,68.40
2022-08-17T05:23:10.810Z,68.45
2022-08-17T05:24:40.795Z,68.66
2022-08-17T05:25:45.655Z,68.55
2022-08-17T05:26:51.083Z,68.65
2022-08-17T05:27:56.052Z,68.67
2022-08-17T05:29:02.438Z,68.79
2022-08-17T05:30:06.980Z,68.86
2022-08-17T05:31:11.300Z,68.88
2022-08-17T05:32:39.571Z,68.84
2022-08-17T05:33:44.544Z,68.86
2022-08-17T05:34:49.685Z,69.02
2022-08-17T05:35:56.297Z,68.96
2022-08-17T05:37:02.462Z,69.27
2022-08-17T05:38:14.469Z,69.11
2022-08-17T05:39:17.601Z,68.98
2022-08-17T05:40:22.214Z,69.28
2022-08-17T05:41:25.868Z,69.36
2022-08-17T05:42:29.297Z,69.51
2022-08-17T05:43:38.575Z,69.52
2022-08-17T05:44:41.832Z,69.74
2022-08-17T05:45:55.157Z,70.17
2022-08-17T05:47:00.181Z,70.24
2022-08-17T05:48:03.945Z,70.33
2022-08-17T05:49:11.238Z,70.53
2022-08-17T05:50:26.975Z,70.83
2022-08-17T05:52:18.837Z,71.09
2022-08-17T05:54:01.042Z,71.18
2022-08-17T05:55:21.379Z,71.06
2022-08-17T05:57:04.552Z,71.18
2022-08-17T05:58:35.480Z,71.26
2022-08-17T05:59:58.313Z,71.50
2022-08-17T06:01:12.753Z,71.65
2022-08-17T06:02:48.037Z,71.72
2022-08-17T06:04:23.383Z,71.78
2022-08-17T06:05:29.795Z,72.10
2022-08-17T06:06:40.024Z,71.91
2022-08-17T06:07:54.699Z,71.92
2022-08-17T06:09:33.694Z,71.98
2022-08-17T06:10:48.024Z,72.28
2022-08-17T06:12:03.943Z,72.53
2022-08-17T06:13:39.129Z,72.35
2022-08-17T06:14:52.269Z,72.28
2022-08-17T06:16:28.300Z,72.17
2022-08-17T06:17:37.854Z,71.80
2022-08-17T06:18:58.083Z,71.81
2022-08-17T06:20:10.698Z,71.56
2022-08-17T06:21:18.444Z,71.59
2022-08-17T06:22:33.671Z,71.52
2022-08-17T06:23:41.928Z,71.38
2022-08-17T06:25:01.271Z,71.29
2022-08-17T06:26:41.059Z,71.16
2022-08-17T06:27:55.904Z,71.26
2022-08-17T06:29:03.746Z,71.32
2022-08-17T06:30:25.101Z,71.49
2022-08-17T06:31:39.227Z,71.45
2022-08-17T06:32:45.469Z,71.38
2022-08-17T06:33:49.571Z,71.34
2022-08-17T06:34:53.877Z,71.32
2022-08-17T06:36:37.725Z,71.34
2022-08-17T06:37:59.675Z,71.47
2022-08-17T06:39:02.859Z,71.83
2022-08-17T06:40:20.616Z,71.71
2022-08-17T06:41:31.712Z,71.89
2022-08-17T06:43:17.072Z,71.38
2022-08-17T06:44:43.421Z,69.84
2022-08-17T06:46:07.967Z,69.10
2022-08-17T06:47:28.717Z,68.25
2022-08-17T06:48:43.607Z,67.04
2022-08-17T06:49:55.532Z,65.98
2022-08-17T06:51:03.962Z,65.16
2022-08-17T06:52:45.777Z,64.31
2022-08-17T06:53:59.996Z,63.02
2022-08-17T06:55:18.001Z,62.53
2022-08-17T06:56:54.183Z,62.18
2022-08-17T06:58:15.615Z,61.58
2022-08-17T06:59:36.271Z,60.99
2022-08-17T07:00:58.725Z,60.39
2022-08-17T07:02:07.231Z,59.60
2022-08-17T07:03:21.292Z,59.25
2022-08-17T07:04:30.333Z,58.46
2022-08-17T07:05:53.968Z,57.66
2022-08-17T07:07:27.837Z,57.27
2022-08-17T07:09:06.991Z,56.72
2022-08-17T07:10:11.566Z,55.57
2022-08-17T07:11:22.542Z,55.31
2022-08-17T07:12:31.636Z,55.12
2022-08-17T07:14:03.059Z,54.75
2022-08-17T07:15:23.392Z,54.73
2022-08-17T07:16:41.322Z,54.45
2022-08-17T07:17:48.412Z,54.13
2022-08-17T07:18:53.529Z,54.05
2022-08-17T07:20:10.438Z,53.58
2022-08-17T07:21:41.003Z,52.35
2022-08-17T07:22:57.238Z,51.64
2022-08-17T07:24:47.445Z,51.56
2022-08-17T07:25:50.894Z,50.99
2022-08-17T07:27:17.691Z,50.54
2022-08-17T07:28:23.431Z,49.75
2022-08-17T07:29:27.387Z,49.76
2022-08-17T07:30:46.822Z,49.87
2022-08-17T07:31:51.158Z,49.92
2022-08-17T07:33:04.056Z,49.39
2022-08-17T07:34:15.076Z,49.33
2022-08-17T07:35:31.217Z,49.32
2022-08-17T07:36:42.803Z,49.45
2022-08-17T07:37:54.395Z,47.89
2022-08-17T07:38:58.483Z,47.29
2022-08-17T07:40:22.580Z,47.26
2022-08-17T07:41:26.856Z,47.07
2022-08-17T07:43:08.609Z,45.90
2022-08-17T07:44:18.894Z,45.38
2022-08-17T07:45:40.727Z,45.06
2022-08-17T07:47:13.700Z,44.72
2022-08-17T07:48:25.317Z,42.68
2022-08-17T07:49:31.695Z,42.89
2022-08-17T07:50:34.959Z,43.48
2022-08-17T07:51:43.707Z,44.29
2022-08-17T07:52:50.552Z,44.23
2022-08-17T07:54:13.561Z,43.88
2022-08-17T07:55:33.121Z,42.73
2022-08-17T07:57:03.742Z,43.01
2022-08-17T07:58:06.853Z,41.70
2022-08-17T07:59:14.633Z,41.57
2022-08-17T08:00:29.207Z,40.54
2022-08-17T08:01:41.579Z,39.86
2022-08-17T08:02:57.931Z,39.73
2022-08-17T08:04:01.306Z,39.46
2022-08-17T08:05:13.457Z,39.08
2022-08-17T08:06:26.629Z,38.29
2022-08-17T08:07:35.851Z,38.03
2022-08-17T08:08:43.971Z,37.81
2022-08-17T08:10:07.066Z,37.80
2022-08-17T08:11:15.793Z,37.25
2022-08-17T08:12:37.453Z,37.61
2022-08-17T08:13:44.015Z,37.03
2022-08-17T08:15:07.994Z,36.57
2022-08-17T08:16:29.398Z,36.59
2022-08-17T08:17:46.404Z,36.61
2022-08-17T08:18:57.361Z,36.28
2022-08-17T08:20:37.874Z,37.09
2022-08-17T08:21:34.551Z,36.86
2022-08-17T08:23:00.752Z,36.84
2022-08-17T08:24:30.176Z,36.57
2022-08-17T08:26:13.156Z,36.25
2022-08-17T08:27:50.586Z,35.96
2022-08-17T08:29:29.608Z,35.72
2022-08-17T08:30:40.937Z,35.40
2022-08-17T08:32:09.810Z,35.23
2022-08-17T08:33:48.577Z,34.64
2022-08-17T08:35:14.180Z,34.18
2022-08-17T08:37:14.243Z,33.98
2022-08-17T08:38:34.714Z,33.40
2022-08-17T08:39:51.269Z,33.56
2022-08-17T08:41:22.665Z,33.45
2022-08-17T08:42:38.656Z,33.32
2022-08-17T08:44:19.773Z,33.11
2022-08-17T08:45:34.246Z,33.69
2022-08-17T08:46:44.296Z,33.53
2022-08-17T08:48:06.025Z,33.05
2022-08-17T08:50:09.500Z,32.80
2022-08-17T08:51:29.456Z,32.37
2022-08-17T08:52:52.137Z,32.43
2022-08-17T08:54:27.034Z,32.49
2022-08-17T08:55:50.877Z,32.90
2022-08-17T08:57:25.642Z,32.67
2022-08-17T08:59:01.847Z,32.51
2022-08-17T09:00:13.414Z,32.53
2022-08-17T09:01:42.542Z,32.56
2022-08-17T09:03:06.921Z,33.04
2022-08-17T09:04:25.409Z,32.55
2022-08-17T09:06:00.587Z,32.40
2022-08-17T09:07:26.088Z,32.18
2022-08-17T09:08:32.550Z,31.99
2022-08-17T09:09:55.143Z,32.03
2022-08-17T09:11:23.339Z,31.92
2022-08-17T09:12:57.953Z,31.59
2022-08-17T09:14:21.332Z,31.82
2022-08-17T09:15:30.130Z,31.83
2022-08-17T09:17:03.085Z,30.75
2022-08-17T09:18:59.844Z,29.98
2022-08-17T09:20:02.543Z,30.59
2022-08-17T09:21:27.313Z,29.94
2022-08-17T09:22:56.922Z,30.36
2022-08-17T09:24:21.046Z,29.47
2022-08-17T09:25:31.727Z,29.05
2022-08-17T09:26:39.680Z,29.41
2022-08-17T09:27:53.838Z,29.15
2022-08-17T09:29:05.955Z,29.14
2022-08-17T09:30:12.336Z,28.85
2022-08-17T09:31:21.803Z,28.51
2022-08-17T09:32:33.967Z,28.89
2022-08-17T09:33:48.719Z,29.33
2022-08-17T09:34:56.321Z,28.85
2022-08-17T09:36:41.150Z,28.65
2022-08-17T09:38:18.418Z,28.94
2022-08-17T09:39:42.207Z,28.79
2022-08-17T09:41:06.871Z,28.91
2022-08-17T09:42:30.110Z,28.09
2022-08-17T09:43:59.441Z,28.05
2022-08-17T09:45:08.522Z,28.40
2022-08-17T09:46:29.011Z,27.71
2022-08-17T09:47:45.594Z,27.13
2022-08-17T09:48:59.034Z,26.53
2022-08-17T09:50:11.782Z,25.85
2022-08-17T09:51:36.470Z,25.91
2022-08-17T09:52:42.222Z,26.26
2022-08-17T09:53:45.409Z,26.15
2022-08-17T09:54:51.869Z,26.28
2022-08-17T09:56:16.677Z,25.93
2022-08-17T09:57:37.806Z,26.24
2022-08-17T09:59:14.102Z,25.65
2022-08-17T10:00:25.433Z,25.02
2022-08-17T10:01:40.294Z,25.19
2022-08-17T10:02:57.189Z,25.01
2022-08-17T10:04:09.587Z,25.17
2022-08-17T10:05:33.579Z,24.89
2022-08-17T10:07:03.693Z,24.90
2022-08-17T10:08:32.332Z,24.74
2022-08-17T10:09:48.681Z,25.01
2022-08-17T10:10:59.203Z,24.85
2022-08-17T10:12:29.921Z,25.23
2022-08-17T10:13:53.108Z,24.99
2022-08-17T10:15:15.831Z,24.86
2022-08-17T10:16:38.581Z,24.78
2022-08-17T10:18:04.270Z,25.20
2022-08-17T10:19:20.831Z,24.98
2022-08-17T10:20:30.428Z,24.43
2022-08-17T10:22:00.653Z,24.59
2022-08-17T10:23:36.363Z,24.71
2022-08-17T10:25:22.732Z,25.23
2022-08-17T10:26:54.176Z,25.16
2022-08-17T10:28:10.696Z,24.85
2022-08-17T10:29:46.207Z,24.63
2022-08-17T10:31:23.464Z,24.55
2022-08-17T10:32:39.970Z,24.46
2022-08-17T10:34:25.463Z,24.26
2022-08-17T10:35:41.210Z,24.47
2022-08-17T10:36:54.887Z,23.82
2022-08-17T10:38:17.031Z,23.92
2022-08-17T10:39:33.268Z,23.69
2022-08-17T10:40:52.294Z,24.12
2022-08-17T10:42:03.382Z,23.88
2022-08-17T10:43:41.968Z,24.51
2022-08-17T10:44:57.587Z,24.27
2022-08-17T10:46:40.479Z,23.66
2022-08-17T10:48:22.922Z,24.07
2022-08-17T10:49:29.861Z,25.03
2022-08-17T10:50:46.507Z,24.87
2022-08-17T10:51:59.474Z,24.55
2022-08-17T10:53:02.902Z,24.00
2022-08-17T10:54:27.292Z,23.52
2022-08-17T10:55:30.581Z,23.58
2022-08-17T10:56:47.005Z,23.49
2022-08-17T10:57:51.003Z,23.73
2022-08-17T10:58:59.040Z,23.77
2022-08-17T11:00:28.725Z,24.14
2022-08-17T11:01:34.979Z,24.05
2022-08-17T11:02:52.317Z,23.96
2022-08-17T11:04:01.521Z,24.47
2022-08-17T11:05:22.609Z,24.46
2022-08-17T11:06:32.519Z,23.85
2022-08-17T11:07:35.786Z,24.14
2022-08-17T11:09:05.634Z,23.82
2022-08-17T11:10:27.800Z,23.48
2022-08-17T11:12:02.973Z,23.35
2022-08-17T11:13:28.151Z,23.34
2022-08-17T11:14:55.653Z,23.42
2022-08-17T11:16:32.864Z,24.30
2022-08-17T11:18:10.858Z,25.14
2022-08-17T11:19:51.095Z,24.98
2022-08-17T11:21:21.248Z,24.93
2022-08-17T11:23:02.056Z,24.79
2022-08-17T11:24:16.846Z,24.28
2022-08-17T11:25:31.903Z,23.90
2022-08-17T11:26:37.653Z,23.88
2022-08-17T11:27:41.673Z,24.95
2022-08-17T11:28:52.477Z,24.39
2022-08-17T11:30:09.802Z,23.32
2022-08-17T11:31:40.204Z,22.83
2022-08-17T11:32:54.554Z,22.72
2022-08-17T11:34:06.732Z,23.19
2022-08-17T11:35:12.958Z,23.60
2022-08-17T11:36:21.930Z,22.97
2022-08-17T11:37:44.461Z,23.09
2022-08-17T11:39:29.890Z,23.04
2022-08-17T11:41:01.311Z,24.12
2022-08-17T11:42:39.977Z,24.68
2022-08-17T11:44:03.860Z,24.14
2022-08-17T11:45:32.164Z,24.65
2022-08-17T11:47:17.033Z,24.46
2022-08-17T11:48:44.498Z,24.74
2022-08-17T11:50:12.583Z,24.39
2022-08-17T11:51:38.126Z,23.68
2022-08-17T11:52:46.089Z,23.55
2022-08-17T11:53:50.260Z,22.62
2022-08-17T11:54:53.396Z,23.07
2022-08-17T11:55:56.618Z,22.82
2022-08-17T11:57:21.649Z,22.93
2022-08-17T11:58:30.895Z,22.61
2022-08-17T11:59:34.773Z,22.21
2022-08-17T12:00:46.898Z,22.04
2022-08-17T12:01:50.006Z,22.03
2022-08-17T12:03:34.329Z,22.40
2022-08-17T12:04:37.572Z,21.95
2022-08-17T12:05:41.297Z,21.99
2022-08-17T12:06:49.042Z,21.25
2022-08-17T12:08:04.467Z,21.12
2022-08-17T12:09:31.274Z,21.10
2022-08-17T12:10:37.052Z,21.20
2022-08-17T12:12:18.645Z,21.17
2022-08-17T12:13:30.448Z,21.05
2022-08-17T12:15:09.419Z,21.24
2022-08-17T12:16:18.042Z,20.97
2022-08-17T12:17:41.272Z,19.96
2022-08-17T12:19:02.539Z,20.44
2022-08-17T12:20:11.829Z,20.65
2022-08-17T12:21:36.348Z,20.03
2022-08-17T12:22:53.846Z,20.70
2022-08-17T12:24:23.794Z,20.59
2022-08-17T12:25:56.997Z,19.96
2022-08-17T12:27:04.836Z,19.76
2022-08-17T12:28:29.523Z,19.61
2022-08-17T12:29:35.624Z,19.50
2022-08-17T12:30:50.453Z,20.29
2022-08-17T12:31:55.966Z,19.98
2022-08-17T12:32:59.222Z,20.01
2022-08-17T12:34:05.173Z,19.79
2022-08-17T12:35:39.183Z,19.81
2022-08-17T12:36:42.707Z,20.05
2022-08-17T12:37:49.171Z,20.01
2022-08-17T12:39:13.018Z,19.58
2022-08-17T12:40:26.680Z,19.44
2022-08-17T12:41:44.732Z,19.27
2022-08-17T12:43:18.546Z,19.28
2022-08-17T12:44:31.197Z,19.38
2022-08-17T12:45:39.627Z,19.28
2022-08-17T12:46:50.274Z,19.02
2022-08-17T12:48:09.530Z,18.93
2022-08-17T12:49:20.040Z,18.89
2022-08-17T12:50:28.941Z,18.66
2022-08-17T12:51:34.286Z,19.08
2022-08-17T12:52:40.476Z,18.81
2022-08-17T12:53:54.136Z,18.52
2022-08-17T12:54:59.887Z,18.49
2022-08-17T12:56:10.861Z,18.28
2022-08-17T12:57:17.830Z,18.26
2022-08-17T12:58:29.896Z,18.28
2022-08-17T12:59:33.491Z,18.47
2022-08-17T13:00:47.714Z,18.47
2022-08-17T13:01:51.482Z,18.62
2022-08-17T13:02:58.403Z,18.44
2022-08-17T13:04:01.551Z,18.07
2022-08-17T13:05:17.983Z,18.22
2022-08-17T13:06:33.396Z,18.30
2022-08-17T13:07:46.730Z,17.67
2022-08-17T13:08:50.331Z,16.96
2022-08-17T13:09:53.506Z,16.36
2022-08-17T13:11:09.592Z,16.86
2022-08-17T13:12:12.676Z,16.02
2022-08-17T13:13:25.454Z,16.50
2022-08-17T13:14:28.996Z,16.86
2022-08-17T13:15:44.334Z,17.25
2022-08-17T13:16:51.650Z,17.33
2022-08-17T13:17:58.572Z,17.16
2022-08-17T13:19:39.933Z,17.31
2022-08-17T13:20:53.762Z,17.67
2022-08-17T13:22:02.243Z,17.69
2022-08-17T13:23:12.476Z,17.48
2022-08-17T13:24:29.698Z,17.73
2022-08-17T13:25:42.064Z,17.82
2022-08-17T13:26:45.029Z,17.76
2022-08-17T13:27:52.487Z,17.78
2022-08-17T13:28:55.867Z,17.67
2022-08-17T13:30:03.255Z,17.22
2022-08-17T13:31:28.338Z,16.88
2022-08-17T13:32:42.993Z,15.92
2022-08-17T13:33:47.494Z,15.38
2022-08-17T13:35:14.952Z,15.78
2022-08-17T13:36:32.261Z,16.41
2022-08-17T13:37:37.429Z,17.23
2022-08-17T13:38:51.327Z,17.55
2022-08-17T13:39:57.302Z,17.26
2022-08-17T13:41:00.688Z,17.52
2022-08-17T13:42:32.611Z,17.95
2022-08-17T13:43:50.755Z,18.39
2022-08-17T13:44:56.385Z,18.79
2022-08-17T13:46:31.443Z,18.72
2022-08-17T13:47:37.428Z,19.31
2022-08-17T13:48:40.783Z,19.90
2022-08-17T13:49:48.828Z,19.96
2022-08-17T13:50:55.388Z,19.85
2022-08-17T13:52:01.006Z,19.51
2022-08-17T13:53:24.190Z,19.53
2022-08-17T13:54:29.622Z,19.21
2022-08-17T13:55:32.755Z,18.76
2022-08-17T13:56:50.235Z,18.21
2022-08-17T13:58:03.921Z,18.01
2022-08-17T13:59:16.837Z,17.33
2022-08-17T14:00:40.522Z,17.40
2022-08-17T14:01:52.785Z,17.43
2022-08-17T14:02:58.690Z,17.48
2022-08-17T14:04:17.632Z,17.37
2022-08-17T14:05:20.660Z,17.26
2022-08-17T14:06:53.128Z,16.53
2022-08-17T14:07:56.223Z,16.66
2022-08-17T14:08:59.431Z,16.91
2022-08-17T14:10:16.317Z,17.18
2022-08-17T14:11:20.185Z,16.87
2022-08-17T14:12:26.806Z,16.77
2022-08-17T14:13:29.892Z,16.67
2022-08-17T14:14:33.199Z,16.58
2022-08-17T14:15:54.830Z,16.50
2022-08-17T14:16:59.457Z,16.77
2022-08-17T14:18:02.678Z,16.79
2022-08-17T14:19:06.147Z,16.76
2022-08-17T14:20:12.285Z,16.18
2022-08-17T14:21:15.454Z,16.28
2022-08-17T14:22:23.904Z,16.20
2022-08-17T14:23:27.198Z,16.06
2022-08-17T14:24:44.026Z,15.58
2022-08-17T14:25:48.171Z,16.36
2022-08-17T14:26:54.792Z,16.53
2022-08-17T14:27:58.369Z,16.91
2022-08-17T14:29:02.254Z,17.20
2022-08-17T14:30:07.977Z,17.29
2022-08-17T14:31:11.896Z,16.93
2022-08-17T14:32:27.123Z,17.08
2022-08-17T14:33:30.257Z,17.42
2022-08-17T14:34:33.467Z,17.28
2022-08-17T14:35:47.587Z,17.22
2022-08-17T14:36:53.787Z,17.17
2022-08-17T14:37:57.313Z,16.85
2022-08-17T14:39:00.528Z,16.62
2022-08-17T14:40:08.231Z,16.18
2022-08-17T14:41:11.621Z,16.43
2022-08-17T14:42:15.728Z,16.56
2022-08-17T14:43:21.167Z,16.67
2022-08-17T14:44:24.515Z,16.81
2022-08-17T14:45:32.395Z,16.66
2022-08-17T14:46:36.414Z,16.61
2022-08-17T14:47:41.763Z,16.52
2022-08-17T14:48:44.897Z,16.64
2022-08-17T14:49:48.670Z,16.94
2022-08-17T14:50:51.818Z,16.36
2022-08-17T14:51:54.910Z,16.75
2022-08-17T14:52:58.303Z,16.11
2022-08-17T14:54:03.051Z,16.45
2022-08-17T14:55:08.235Z,17.12
2022-08-17T14:56:11.286Z,16.81
2022-08-17T14:57:24.762Z,17.23
2022-08-17T14:58:39.357Z,17.29
2022-08-17T14:59:42.797Z,16.74
2022-08-17T15:00:45.993Z,16.79
2022-08-17T15:01:49.103Z,16.97
2022-08-17T15:02:58.581Z,17.79
2022-08-17T15:04:01.877Z,17.70
2022-08-17T15:05:06.403Z,17.63
2022-08-17T15:06:12.825Z,17.56
2022-08-17T15:07:16.588Z,18.43
2022-08-17T15:08:19.990Z,18.43
2022-08-17T15:09:23.094Z,19.30
2022-08-17T15:10:28.168Z,20.15
2022-08-17T15:11:31.461Z,20.80
2022-08-17T15:12:35.081Z,20.63
2022-08-17T15:13:38.708Z,19.99
2022-08-17T15:14:57.248Z,20.16
2022-08-17T15:16:00.366Z,20.15
2022-08-17T15:17:05.943Z,21.81
2022-08-17T15:18:09.155Z,22.07
2022-08-17T15:19:12.499Z,22.32
2022-08-17T15:20:19.549Z,21.11
2022-08-17T15:21:22.812Z,20.76
2022-08-17T15:22:27.479Z,20.57
2022-08-17T15:23:35.474Z,20.88
2022-08-17T15:24:38.784Z,21.93
2022-08-17T15:25:42.622Z,22.78
2022-08-17T15:26:45.789Z,22.71
2022-08-17T15:27:49.268Z,23.06
2022-08-17T15:28:56.198Z,23.70
2022-08-17T15:29:59.441Z,23.85
2022-08-17T15:31:02.989Z,23.28
2022-08-17T15:32:08.738Z,23.31
2022-08-17T15:33:17.992Z,22.94
2022-08-17T15:34:21.103Z,22.35
2022-08-17T15:35:29.394Z,22.39
2022-08-17T15:36:33.628Z,22.49
2022-08-17T15:37:37.993Z,22.08
2022-08-17T15:38:44.446Z,21.68
2022-08-17T15:39:47.895Z,21.72
2022-08-17T15:40:55.048Z,21.64
2022-08-17T15:42:03.296Z,22.07